createdAt,value
2018-12-23T00:00:27.097Z,1011.45
2018-12-23T00:01:27.084Z,1011.43
2018-12-23T00:02:27.080Z,1011.49
2018-12-23T00:03:27.058Z,1011.47
2018-12-23T00:04:27.050Z,1011.49
2018-12-23T00:05:27.034Z,1011.51
2018-12-23T00:06:27.025Z,1011.52
2018-12-23T00:07:27.083Z,1011.53
2018-12-23T00:08:26.998Z,1011.52
2018-12-23T00:09:26.992Z,1011.53
2018-12-23T00:10:26.977Z,1011.55
2018-12-23T00:11:27.009Z,1011.54
2018-12-23T00:12:26.982Z,1011.54
2018-12-23T00:13:26.943Z,1011.56
2018-12-23T00:14:26.932Z,1011.55
2018-12-23T00:15:26.923Z,1011.55
2018-12-23T00:16:26.921Z,1011.58
2018-12-23T00:17:26.918Z,1011.57
2018-12-23T00:18:26.888Z,1011.62
2018-12-23T00:19:26.881Z,1011.63
2018-12-23T00:20:26.880Z,1011.68
2018-12-23T00:21:26.865Z,1011.62
2018-12-23T00:22:26.878Z,1011.64
2018-12-23T00:23:26.856Z,1011.61
2018-12-23T00:24:26.823Z,1011.66
2018-12-23T00:25:26.816Z,1011.67
2018-12-23T00:26:26.816Z,1011.67
2018-12-23T00:27:26.794Z,1011.73
2018-12-23T00:28:26.801Z,1011.76
2018-12-23T00:29:26.776Z,1011.79
2018-12-23T00:30:26.765Z,1011.72
2018-12-23T00:31:26.751Z,1011.82
2018-12-23T00:32:26.743Z,1011.85
2018-12-23T00:33:26.742Z,1011.84
2018-12-23T00:34:26.724Z,1011.84
2018-12-23T00:35:26.714Z,1011.85
2018-12-23T00:36:26.693Z,1011.86
2018-12-23T00:37:26.690Z,1011.84
2018-12-23T00:38:26.704Z,1011.89
2018-12-23T00:39:26.670Z,1011.83
2018-12-23T00:40:26.655Z,1011.91
2018-12-23T00:41:26.643Z,1011.90
2018-12-23T00:42:26.638Z,1011.90
2018-12-23T00:43:26.654Z,1011.89
2018-12-23T00:44:26.613Z,1011.90
2018-12-23T00:45:26.600Z,1011.91
2018-12-23T00:46:26.589Z,1011.94
2018-12-23T00:47:26.585Z,1012.04
2018-12-23T00:48:26.572Z,1012.08
2018-12-23T00:49:26.575Z,1012.11
2018-12-23T00:50:26.557Z,1012.17
2018-12-23T00:51:26.542Z,1012.11
2018-12-23T00:52:26.530Z,1012.11
2018-12-23T00:53:26.519Z,1012.15
2018-12-23T00:54:26.521Z,1012.17
2018-12-23T00:55:26.503Z,1012.16
2018-12-23T00:56:26.529Z,1012.15
2018-12-23T00:57:26.479Z,1012.12
2018-12-23T00:58:26.469Z,1012.16
2018-12-23T00:59:26.468Z,1012.18
2018-12-23T01:00:26.448Z,1012.17
2018-12-23T01:01:26.430Z,1012.18
2018-12-23T01:02:26.426Z,1012.19
2018-12-23T01:03:26.408Z,1012.20
2018-12-23T01:04:26.416Z,1012.21
2018-12-23T01:05:28.885Z,1012.19
2018-12-23T01:06:26.379Z,1012.29
2018-12-23T01:07:26.373Z,1012.27
2018-12-23T01:08:26.359Z,1012.34
2018-12-23T01:09:26.366Z,1012.32
2018-12-23T01:10:26.340Z,1012.31
2018-12-23T01:11:26.326Z,1012.33
2018-12-23T01:12:26.316Z,1012.29
2018-12-23T01:13:26.314Z,1012.28
2018-12-23T01:14:26.319Z,1012.33
2018-12-23T01:15:26.290Z,1012.35
2018-12-23T01:16:26.272Z,1012.43
2018-12-23T01:17:26.268Z,1012.40
2018-12-23T01:18:26.254Z,1012.37
2018-12-23T01:19:26.256Z,1012.39
2018-12-23T01:20:26.234Z,1012.35
2018-12-23T01:21:26.222Z,1012.36
2018-12-23T01:22:26.208Z,1012.34
2018-12-23T01:23:26.197Z,1012.36
2018-12-23T01:24:26.203Z,1012.33
2018-12-23T01:25:26.181Z,1012.36
2018-12-23T01:26:26.278Z,1012.40
2018-12-23T01:27:26.164Z,1012.45
2018-12-23T01:28:26.149Z,1012.46
2018-12-23T01:29:26.174Z,1012.53
2018-12-23T01:30:26.127Z,1012.60
2018-12-23T01:31:26.120Z,1012.59
2018-12-23T01:32:26.113Z,1012.60
2018-12-23T01:33:26.097Z,1012.57
2018-12-23T01:34:26.081Z,1012.61
2018-12-23T01:35:26.088Z,1012.62
2018-12-23T01:36:26.069Z,1012.63
2018-12-23T01:37:26.055Z,1012.68
2018-12-23T01:38:26.053Z,1012.69
2018-12-23T01:39:26.034Z,1012.72
2018-12-23T01:40:26.040Z,1012.70
2018-12-23T01:41:26.009Z,1012.71
2018-12-23T01:42:26.015Z,1012.72
2018-12-23T01:43:25.995Z,1012.80
2018-12-23T01:44:25.983Z,1012.78
2018-12-23T01:45:25.986Z,1012.81
2018-12-23T01:46:25.955Z,1012.81
2018-12-23T01:47:25.967Z,1012.86
2018-12-23T01:48:25.929Z,1012.85
2018-12-23T01:49:25.923Z,1012.85
2018-12-23T01:50:25.933Z,1012.84
2018-12-23T01:51:25.920Z,1012.81
2018-12-23T01:52:25.896Z,1012.85
2018-12-23T01:53:25.883Z,1012.81
2018-12-23T01:54:25.874Z,1012.81
2018-12-23T01:55:25.885Z,1012.83
2018-12-23T01:56:25.852Z,1012.83
2018-12-23T01:57:25.846Z,1012.82
2018-12-23T01:58:25.836Z,1012.79
2018-12-23T01:59:25.823Z,1012.81
2018-12-23T02:00:25.824Z,1012.78
2018-12-23T02:01:25.800Z,1012.78
2018-12-23T02:02:25.792Z,1012.75
2018-12-23T02:03:25.775Z,1012.79
2018-12-23T02:04:25.760Z,1012.81
2018-12-23T02:05:25.783Z,1012.79
2018-12-23T02:06:25.749Z,1012.77
2018-12-23T02:07:25.733Z,1012.76
2018-12-23T02:08:25.723Z,1012.77
2018-12-23T02:09:25.717Z,1012.76
2018-12-23T02:10:25.699Z,1012.75
2018-12-23T02:11:25.705Z,1012.76
2018-12-23T02:12:25.677Z,1012.77
2018-12-23T02:13:25.672Z,1012.78
2018-12-23T02:14:25.656Z,1012.82
2018-12-23T02:15:25.650Z,1012.85
2018-12-23T02:16:25.646Z,1012.83
2018-12-23T02:17:25.619Z,1012.86
2018-12-23T02:18:25.611Z,1012.87
2018-12-23T02:19:25.603Z,1012.86
2018-12-23T02:20:25.592Z,1012.83
2018-12-23T02:21:25.598Z,1012.81
2018-12-23T02:22:25.575Z,1012.83
2018-12-23T02:23:25.564Z,1012.78
2018-12-23T02:24:25.552Z,1012.76
2018-12-23T02:25:25.541Z,1012.79
2018-12-23T02:26:25.547Z,1012.84
2018-12-23T02:27:25.515Z,1012.88
2018-12-23T02:28:25.510Z,1012.94
2018-12-23T02:29:25.516Z,1012.98
2018-12-23T02:30:25.633Z,1012.92
2018-12-23T02:31:25.485Z,1012.93
2018-12-23T02:32:25.468Z,1012.93
2018-12-23T02:33:25.455Z,1012.96
2018-12-23T02:34:25.443Z,1012.86
2018-12-23T02:35:25.439Z,1012.89
2018-12-23T02:36:25.449Z,1012.84
2018-12-23T02:37:25.409Z,1012.92
2018-12-23T02:38:25.405Z,1012.90
2018-12-23T02:39:25.392Z,1012.86
2018-12-23T02:40:25.382Z,1012.95
2018-12-23T02:41:31.680Z,1012.89
2018-12-23T02:42:26.373Z,1012.86
2018-12-23T02:43:25.354Z,1012.84
2018-12-23T02:44:25.338Z,1012.83
2018-12-23T02:45:25.333Z,1012.83
2018-12-23T02:46:25.319Z,1012.80
2018-12-23T02:47:25.323Z,1012.80
2018-12-23T02:48:25.296Z,1012.77
2018-12-23T02:49:25.283Z,1012.82
2018-12-23T02:50:25.273Z,1012.83
2018-12-23T02:51:25.264Z,1012.82
2018-12-23T02:52:25.266Z,1012.85
2018-12-23T02:53:25.240Z,1012.82
2018-12-23T02:54:25.229Z,1012.81
2018-12-23T02:55:25.236Z,1012.80
2018-12-23T02:56:25.206Z,1012.80
2018-12-23T02:57:25.210Z,1012.76
2018-12-23T02:58:25.190Z,1012.79
2018-12-23T02:59:25.183Z,1012.77
2018-12-23T03:00:25.169Z,1012.78
2018-12-23T03:01:25.163Z,1012.74
2018-12-23T03:02:25.164Z,1012.70
2018-12-23T03:03:25.138Z,1012.69
2018-12-23T03:04:25.128Z,1012.74
2018-12-23T03:05:25.120Z,1012.74
2018-12-23T03:06:25.115Z,1012.72
2018-12-23T03:07:25.112Z,1012.69
2018-12-23T03:08:25.087Z,1012.72
2018-12-23T03:09:25.071Z,1012.67
2018-12-23T03:10:25.060Z,1012.61
2018-12-23T03:11:25.053Z,1012.63
2018-12-23T03:12:25.055Z,1012.64
2018-12-23T03:13:25.028Z,1012.64
2018-12-23T03:14:25.017Z,1012.68
2018-12-23T03:15:25.007Z,1012.73
2018-12-23T03:16:24.995Z,1012.78
2018-12-23T03:17:25.010Z,1012.72
2018-12-23T03:18:24.972Z,1012.71
2018-12-23T03:19:24.988Z,1012.71
2018-12-23T03:20:24.968Z,1012.75
2018-12-23T03:21:24.946Z,1012.78
2018-12-23T03:22:24.933Z,1012.79
2018-12-23T03:23:24.936Z,1012.75
2018-12-23T03:24:24.912Z,1012.75
2018-12-23T03:25:24.900Z,1012.82
2018-12-23T03:26:24.890Z,1012.80
2018-12-23T03:27:24.877Z,1012.78
2018-12-23T03:28:24.887Z,1012.75
2018-12-23T03:29:24.858Z,1012.73
2018-12-23T03:30:24.850Z,1012.75
2018-12-23T03:31:24.837Z,1012.72
2018-12-23T03:32:24.831Z,1012.69
2018-12-23T03:33:24.838Z,1012.64
2018-12-23T03:34:24.801Z,1012.66
2018-12-23T03:35:24.789Z,1012.66
2018-12-23T03:36:24.792Z,1012.59
2018-12-23T03:37:24.772Z,1012.70
2018-12-23T03:38:24.778Z,1012.73
2018-12-23T03:39:24.761Z,1012.64
2018-12-23T03:40:24.742Z,1012.64
2018-12-23T03:41:24.728Z,1012.63
2018-12-23T03:42:24.720Z,1012.63
2018-12-23T03:43:24.722Z,1012.57
2018-12-23T03:44:24.699Z,1012.48
2018-12-23T03:45:24.689Z,1012.49
2018-12-23T03:46:24.684Z,1012.46
2018-12-23T03:47:24.663Z,1012.47
2018-12-23T03:48:24.670Z,1012.47
2018-12-23T03:49:24.648Z,1012.49
2018-12-23T03:50:24.635Z,1012.47
2018-12-23T03:51:24.618Z,1012.49
2018-12-23T03:52:24.620Z,1012.39
2018-12-23T03:53:24.617Z,1012.45
2018-12-23T03:54:24.598Z,1012.38
2018-12-23T03:55:24.585Z,1012.37
2018-12-23T03:56:24.573Z,1012.39
2018-12-23T03:57:24.564Z,1012.43
2018-12-23T03:58:24.563Z,1012.39
2018-12-23T03:59:24.538Z,1012.37
2018-12-23T04:00:24.528Z,1012.38
2018-12-23T04:01:24.516Z,1012.36
2018-12-23T04:02:24.506Z,1012.43
2018-12-23T04:03:24.537Z,1012.37
2018-12-23T04:04:24.488Z,1012.39
2018-12-23T04:05:24.477Z,1012.43
2018-12-23T04:06:25.093Z,1012.39
2018-12-23T04:07:24.455Z,1012.40
2018-12-23T04:08:24.445Z,1012.40
2018-12-23T04:09:24.446Z,1012.41
2018-12-23T04:10:24.425Z,1012.40
2018-12-23T04:11:24.409Z,1012.41
2018-12-23T04:12:24.402Z,1012.40
2018-12-23T04:13:24.409Z,1012.38
2018-12-23T04:14:24.401Z,1012.38
2018-12-23T04:15:24.368Z,1012.38
2018-12-23T04:16:24.358Z,1012.40
2018-12-23T04:17:24.347Z,1012.42
2018-12-23T04:18:24.334Z,1012.38
2018-12-23T04:19:24.341Z,1012.40
2018-12-23T04:20:24.315Z,1012.36
2018-12-23T04:21:24.306Z,1012.38
2018-12-23T04:22:24.297Z,1012.37
2018-12-23T04:23:24.285Z,1012.36
2018-12-23T04:24:24.289Z,1012.35
2018-12-23T04:25:24.263Z,1012.39
2018-12-23T04:26:24.259Z,1012.37
2018-12-23T04:27:24.245Z,1012.34
2018-12-23T04:28:24.230Z,1012.33
2018-12-23T04:29:24.238Z,1012.31
2018-12-23T04:30:24.212Z,1012.31
2018-12-23T04:31:24.197Z,1012.36
2018-12-23T04:32:24.192Z,1012.36
2018-12-23T04:33:24.186Z,1012.35
2018-12-23T04:34:24.191Z,1012.40
2018-12-23T04:35:24.163Z,1012.35
2018-12-23T04:36:24.149Z,1012.36
2018-12-23T04:37:24.132Z,1012.34
2018-12-23T04:38:24.123Z,1012.39
2018-12-23T04:39:24.127Z,1012.37
2018-12-23T04:40:24.105Z,1012.38
2018-12-23T04:41:24.094Z,1012.37
2018-12-23T04:42:24.087Z,1012.36
2018-12-23T04:43:24.074Z,1012.39
2018-12-23T04:44:24.074Z,1012.34
2018-12-23T04:45:24.050Z,1012.33
2018-12-23T04:46:24.041Z,1012.30
2018-12-23T04:47:24.030Z,1012.29
2018-12-23T04:48:24.022Z,1012.34
2018-12-23T04:49:24.028Z,1012.29
2018-12-23T04:50:24.000Z,1012.27
2018-12-23T04:51:23.984Z,1012.27
2018-12-23T04:52:23.987Z,1012.27
2018-12-23T04:53:23.972Z,1012.27
2018-12-23T04:54:23.990Z,1012.29
2018-12-23T04:55:25.424Z,1012.32
2018-12-23T04:56:23.940Z,1012.36
2018-12-23T04:57:23.931Z,1012.34
2018-12-23T04:58:23.916Z,1012.27
2018-12-23T04:59:23.907Z,1012.31
2018-12-23T05:00:23.904Z,1012.33
2018-12-23T05:01:23.882Z,1012.34
2018-12-23T05:02:23.874Z,1012.31
2018-12-23T05:03:23.860Z,1012.31
2018-12-23T05:04:23.849Z,1012.30
2018-12-23T05:05:23.855Z,1012.31
2018-12-23T05:06:23.829Z,1012.32
2018-12-23T05:07:23.821Z,1012.28
2018-12-23T05:08:23.809Z,1012.34
2018-12-23T05:09:23.800Z,1012.34
2018-12-23T05:10:23.802Z,1012.32
2018-12-23T05:11:23.774Z,1012.33
2018-12-23T05:12:23.765Z,1012.30
2018-12-23T05:13:23.754Z,1012.28
2018-12-23T05:14:23.746Z,1012.36
2018-12-23T05:15:23.751Z,1012.29
2018-12-23T05:16:23.721Z,1012.33
2018-12-23T05:17:23.712Z,1012.34
2018-12-23T05:18:23.719Z,1012.31
2018-12-23T05:19:23.694Z,1012.33
2018-12-23T05:20:23.696Z,1012.29
2018-12-23T05:21:23.670Z,1012.28
2018-12-23T05:22:23.658Z,1012.27
2018-12-23T05:23:23.651Z,1012.26
2018-12-23T05:24:23.637Z,1012.28
2018-12-23T05:25:23.648Z,1012.23
2018-12-23T05:26:23.616Z,1012.25
2018-12-23T05:27:23.613Z,1012.22
2018-12-23T05:28:23.596Z,1012.24
2018-12-23T05:29:23.585Z,1012.29
2018-12-23T05:30:23.589Z,1012.32
2018-12-23T05:31:23.562Z,1012.24
2018-12-23T05:32:23.557Z,1012.28
2018-12-23T05:33:23.543Z,1012.25
2018-12-23T05:34:23.534Z,1012.31
2018-12-23T05:35:23.539Z,1012.32
2018-12-23T05:36:23.512Z,1012.27
2018-12-23T05:37:23.503Z,1012.30
2018-12-23T05:38:23.488Z,1012.30
2018-12-23T05:39:23.487Z,1012.29
2018-12-23T05:40:23.474Z,1012.31
2018-12-23T05:41:23.475Z,1012.29
2018-12-23T05:42:23.449Z,1012.34
2018-12-23T05:43:23.434Z,1012.25
2018-12-23T05:44:23.429Z,1012.29
2018-12-23T05:45:23.418Z,1012.27
2018-12-23T05:46:23.421Z,1012.21
2018-12-23T05:47:23.396Z,1012.28
2018-12-23T05:48:23.390Z,1012.28
2018-12-23T05:49:23.382Z,1012.26
2018-12-23T05:50:23.361Z,1012.27
2018-12-23T05:51:23.367Z,1012.27
2018-12-23T05:52:23.848Z,1012.27
2018-12-23T05:53:23.333Z,1012.32
2018-12-23T05:54:23.323Z,1012.27
2018-12-23T05:55:23.306Z,1012.28
2018-12-23T05:56:23.311Z,1012.26
2018-12-23T05:57:23.287Z,1012.30
2018-12-23T05:58:23.281Z,1012.30
2018-12-23T05:59:23.270Z,1012.30
2018-12-23T06:00:23.259Z,1012.30
2018-12-23T06:01:23.257Z,1012.36
2018-12-23T06:02:23.234Z,1012.40
2018-12-23T06:03:23.225Z,1012.36
2018-12-23T06:04:23.214Z,1012.44
2018-12-23T06:05:23.207Z,1012.41
2018-12-23T06:06:23.206Z,1012.37
2018-12-23T06:07:23.179Z,1012.35
2018-12-23T06:08:23.169Z,1012.32
2018-12-23T06:09:23.163Z,1012.35
2018-12-23T06:10:23.153Z,1012.37
2018-12-23T06:11:23.151Z,1012.41
2018-12-23T06:12:23.129Z,1012.41
2018-12-23T06:13:23.128Z,1012.40
2018-12-23T06:14:23.108Z,1012.41
2018-12-23T06:15:23.097Z,1012.42
2018-12-23T06:16:23.112Z,1012.43
2018-12-23T06:17:23.080Z,1012.43
2018-12-23T06:18:23.068Z,1012.42
2018-12-23T06:19:23.058Z,1012.42
2018-12-23T06:20:23.058Z,1012.38
2018-12-23T06:21:23.056Z,1012.41
2018-12-23T06:22:23.023Z,1012.41
2018-12-23T06:23:23.015Z,1012.42
2018-12-23T06:24:23.007Z,1012.38
2018-12-23T06:25:22.993Z,1012.38
2018-12-23T06:26:22.978Z,1012.40
2018-12-23T06:27:22.988Z,1012.37
2018-12-23T06:28:22.963Z,1012.41
2018-12-23T06:29:22.954Z,1012.35
2018-12-23T06:30:22.951Z,1012.39
2018-12-23T06:31:22.926Z,1012.35
2018-12-23T06:32:22.931Z,1012.38
2018-12-23T06:33:22.908Z,1012.40
2018-12-23T06:34:22.892Z,1012.42
2018-12-23T06:35:22.887Z,1012.45
2018-12-23T06:36:22.878Z,1012.36
2018-12-23T06:37:22.880Z,1012.33
2018-12-23T06:38:22.851Z,1012.29
2018-12-23T06:39:22.845Z,1012.34
2018-12-23T06:40:22.835Z,1012.31
2018-12-23T06:41:22.819Z,1012.28
2018-12-23T06:42:22.824Z,1012.34
2018-12-23T06:43:22.801Z,1012.37
2018-12-23T06:44:22.800Z,1012.35
2018-12-23T06:45:22.781Z,1012.35
2018-12-23T06:46:22.770Z,1012.31
2018-12-23T06:47:22.792Z,1012.33
2018-12-23T06:48:22.751Z,1012.29
2018-12-23T06:49:22.738Z,1012.31
2018-12-23T06:50:22.726Z,1012.27
2018-12-23T06:51:22.718Z,1012.27
2018-12-23T06:52:22.708Z,1012.24
2018-12-23T06:53:22.712Z,1012.22
2018-12-23T06:54:22.686Z,1012.27
2018-12-23T06:55:22.675Z,1012.33
2018-12-23T06:56:22.665Z,1012.38
2018-12-23T06:57:22.652Z,1012.33
2018-12-23T06:58:22.666Z,1012.35
2018-12-23T06:59:22.631Z,1012.36
2018-12-23T07:00:22.624Z,1012.34
2018-12-23T07:01:22.609Z,1012.33
2018-12-23T07:02:22.612Z,1012.32
2018-12-23T07:03:22.612Z,1012.28
2018-12-23T07:04:22.584Z,1012.31
2018-12-23T07:05:22.567Z,1012.25
2018-12-23T07:06:22.558Z,1012.29
2018-12-23T07:07:22.548Z,1012.24
2018-12-23T07:08:22.560Z,1012.30
2018-12-23T07:09:22.522Z,1012.30
2018-12-23T07:10:22.540Z,1012.26
2018-12-23T07:11:22.503Z,1012.24
2018-12-23T07:12:22.496Z,1012.21
2018-12-23T07:13:22.493Z,1012.17
2018-12-23T07:14:22.472Z,1012.17
2018-12-23T07:15:22.468Z,1012.25
2018-12-23T07:16:22.450Z,1012.17
2018-12-23T07:17:22.445Z,1012.24
2018-12-23T07:18:27.750Z,1012.12
2018-12-23T07:19:22.418Z,1012.13
2018-12-23T07:20:22.411Z,1012.16
2018-12-23T07:21:22.404Z,1012.15
2018-12-23T07:22:22.390Z,1012.13
2018-12-23T07:23:22.403Z,1012.17
2018-12-23T07:24:22.366Z,1012.17
2018-12-23T07:25:22.362Z,1012.19
2018-12-23T07:26:22.348Z,1012.20
2018-12-23T07:27:22.344Z,1012.21
2018-12-23T07:28:22.344Z,1012.21
2018-12-23T07:29:22.316Z,1012.22
2018-12-23T07:30:22.309Z,1012.25
2018-12-23T07:31:22.302Z,1012.24
2018-12-23T07:32:22.291Z,1012.22
2018-12-23T07:33:22.285Z,1012.27
2018-12-23T07:34:22.268Z,1012.21
2018-12-23T07:35:22.253Z,1012.27
2018-12-23T07:36:22.251Z,1012.29
2018-12-23T07:37:27.520Z,1012.24
2018-12-23T07:38:23.241Z,1012.24
2018-12-23T07:39:22.205Z,1012.26
2018-12-23T07:40:22.203Z,1012.29
2018-12-23T07:41:22.192Z,1012.36
2018-12-23T07:42:22.182Z,1012.38
2018-12-23T07:43:22.176Z,1012.36
2018-12-23T07:44:22.160Z,1012.32
2018-12-23T07:45:22.148Z,1012.37
2018-12-23T07:46:22.134Z,1012.40
2018-12-23T07:47:22.127Z,1012.41
2018-12-23T07:48:22.142Z,1012.36
2018-12-23T07:49:22.103Z,1012.40
2018-12-23T07:50:22.093Z,1012.54
2018-12-23T07:51:22.085Z,1012.45
2018-12-23T07:52:22.075Z,1012.46
2018-12-23T07:53:22.068Z,1012.45
2018-12-23T07:54:22.070Z,1012.42
2018-12-23T07:55:22.041Z,1012.39
2018-12-23T07:56:22.030Z,1012.32
2018-12-23T07:57:22.018Z,1012.32
2018-12-23T07:58:22.014Z,1012.33
2018-12-23T07:59:22.023Z,1012.33
2018-12-23T08:00:21.989Z,1012.38
2018-12-23T08:01:21.981Z,1012.41
2018-12-23T08:02:21.972Z,1012.39
2018-12-23T08:03:21.960Z,1012.41
2018-12-23T08:04:21.967Z,1012.30
2018-12-23T08:05:21.934Z,1012.34
2018-12-23T08:06:21.924Z,1012.30
2018-12-23T08:07:21.914Z,1012.42
2018-12-23T08:08:21.905Z,1012.41
2018-12-23T08:09:21.909Z,1012.37
2018-12-23T08:10:21.882Z,1012.47
2018-12-23T08:11:21.869Z,1012.40
2018-12-23T08:12:21.856Z,1012.42
2018-12-23T08:13:21.847Z,1012.40
2018-12-23T08:14:21.866Z,1012.39
2018-12-23T08:15:21.828Z,1012.41
2018-12-23T08:16:21.818Z,1012.43
2018-12-23T08:17:21.811Z,1012.44
2018-12-23T08:18:21.798Z,1012.40
2018-12-23T08:19:21.787Z,1012.39
2018-12-23T08:20:21.792Z,1012.40
2018-12-23T08:21:21.762Z,1012.41
2018-12-23T08:22:21.752Z,1012.39
2018-12-23T08:23:21.751Z,1012.37
2018-12-23T08:24:21.735Z,1012.38
2018-12-23T08:25:21.740Z,1012.45
2018-12-23T08:26:21.717Z,1012.42
2018-12-23T08:27:21.702Z,1012.38
2018-12-23T08:28:21.686Z,1012.40
2018-12-23T08:29:21.686Z,1012.32
2018-12-23T08:30:21.683Z,1012.35
2018-12-23T08:31:21.657Z,1012.34
2018-12-23T08:32:21.646Z,1012.32
2018-12-23T08:33:21.638Z,1012.27
2018-12-23T08:34:21.630Z,1012.31
2018-12-23T08:35:21.635Z,1012.42
2018-12-23T08:36:21.610Z,1012.34
2018-12-23T08:37:21.593Z,1012.40
2018-12-23T08:38:21.590Z,1012.41
2018-12-23T08:39:21.575Z,1012.43
2018-12-23T08:40:21.579Z,1012.38
2018-12-23T08:41:21.558Z,1012.37
2018-12-23T08:42:21.542Z,1012.34
2018-12-23T08:43:21.536Z,1012.46
2018-12-23T08:44:21.530Z,1012.48
2018-12-23T08:45:21.531Z,1012.44
2018-12-23T08:46:21.552Z,1012.50
2018-12-23T08:47:21.491Z,1012.39
2018-12-23T08:48:21.482Z,1012.38
2018-12-23T08:49:21.472Z,1012.48
2018-12-23T08:50:21.475Z,1012.51
2018-12-23T08:51:21.445Z,1012.48
2018-12-23T08:52:21.436Z,1012.49
2018-12-23T08:53:21.428Z,1012.47
2018-12-23T08:54:21.418Z,1012.45
2018-12-23T08:55:21.435Z,1012.52
2018-12-23T08:56:21.393Z,1012.46
2018-12-23T08:57:21.396Z,1012.46
2018-12-23T08:58:21.387Z,1012.47
2018-12-23T08:59:21.360Z,1012.47
2018-12-23T09:00:21.372Z,1012.55
2018-12-23T09:01:21.340Z,1012.41
2018-12-23T09:02:21.335Z,1012.35
2018-12-23T09:03:21.327Z,1012.46
2018-12-23T09:04:21.323Z,1012.46
2018-12-23T09:05:21.336Z,1012.41
2018-12-23T09:06:21.307Z,1012.49
2018-12-23T09:07:21.291Z,1012.44
2018-12-23T09:08:21.290Z,1012.42
2018-12-23T09:09:21.273Z,1012.43
2018-12-23T09:10:21.332Z,1012.40
2018-12-23T09:11:21.252Z,1012.40
2018-12-23T09:12:21.234Z,1012.40
2018-12-23T09:13:21.226Z,1012.40
2018-12-23T09:14:21.210Z,1012.34
2018-12-23T09:15:21.229Z,1012.37
2018-12-23T09:16:21.188Z,1012.33
2018-12-23T09:17:21.181Z,1012.35
2018-12-23T09:18:21.165Z,1012.29
2018-12-23T09:19:21.168Z,1012.26
2018-12-23T09:20:21.174Z,1012.30
2018-12-23T09:21:21.151Z,1012.24
2018-12-23T09:22:21.157Z,1012.26
2018-12-23T09:23:21.108Z,1012.27
2018-12-23T09:24:21.104Z,1012.26
2018-12-23T09:25:21.119Z,1012.24
2018-12-23T09:26:21.090Z,1012.24
2018-12-23T09:27:21.077Z,1012.25
2018-12-23T09:28:21.071Z,1012.24
2018-12-23T09:29:21.051Z,1012.18
2018-12-23T09:30:21.062Z,1012.25
2018-12-23T09:31:21.033Z,1012.24
2018-12-23T09:32:21.028Z,1012.30
2018-12-23T09:33:21.008Z,1012.29
2018-12-23T09:34:20.996Z,1012.19
2018-12-23T09:35:20.998Z,1012.21
2018-12-23T09:36:20.973Z,1012.22
2018-12-23T09:37:20.973Z,1012.15
2018-12-23T09:38:20.955Z,1012.17
2018-12-23T09:39:20.939Z,1012.17
2018-12-23T09:40:20.963Z,1012.17
2018-12-23T09:41:20.920Z,1012.19
2018-12-23T09:42:20.923Z,1012.19
2018-12-23T09:43:20.900Z,1012.15
2018-12-23T09:44:20.976Z,1012.18
2018-12-23T09:45:20.874Z,1012.17
2018-12-23T09:46:20.883Z,1012.19
2018-12-23T09:47:20.854Z,1012.20
2018-12-23T09:48:20.843Z,1012.14
2018-12-23T09:49:20.833Z,1012.15
2018-12-23T09:50:20.827Z,1012.26
2018-12-23T09:51:20.839Z,1012.19
2018-12-23T09:52:20.805Z,1012.23
2018-12-23T09:53:20.807Z,1012.19
2018-12-23T09:54:20.779Z,1012.18
2018-12-23T09:55:20.779Z,1012.20
2018-12-23T09:56:20.783Z,1012.15
2018-12-23T09:57:20.749Z,1012.11
2018-12-23T09:58:20.782Z,1012.13
2018-12-23T09:59:20.734Z,1012.09
2018-12-23T10:00:20.731Z,1012.12
2018-12-23T10:01:20.728Z,1012.12
2018-12-23T10:02:20.700Z,1012.08
2018-12-23T10:03:20.690Z,1012.10
2018-12-23T10:04:20.676Z,1012.07
2018-12-23T10:05:20.663Z,1012.01
2018-12-23T10:06:20.673Z,1012.09
2018-12-23T10:07:20.645Z,1012.04
2018-12-23T10:08:20.640Z,1012.01
2018-12-23T10:09:20.623Z,1011.98
2018-12-23T10:10:28.209Z,1011.93
2018-12-23T10:11:21.640Z,1011.94
2018-12-23T10:12:20.594Z,1011.93
2018-12-23T10:13:20.590Z,1011.96
2018-12-23T10:14:20.579Z,1012.05
2018-12-23T10:15:20.573Z,1011.97
2018-12-23T10:16:20.551Z,1011.93
2018-12-23T10:17:20.594Z,1011.94
2018-12-23T10:18:20.557Z,1011.95
2018-12-23T10:19:20.537Z,1011.89
2018-12-23T10:20:20.504Z,1011.89
2018-12-23T10:21:20.497Z,1011.93
2018-12-23T10:22:20.485Z,1011.88
2018-12-23T10:23:20.487Z,1011.94
2018-12-23T10:24:20.469Z,1011.95
2018-12-23T10:25:20.461Z,1011.96
2018-12-23T10:26:20.477Z,1011.94
2018-12-23T10:27:20.441Z,1011.98
2018-12-23T10:28:20.434Z,1011.90
2018-12-23T10:29:20.415Z,1011.91
2018-12-23T10:30:20.413Z,1011.87
2018-12-23T10:31:20.410Z,1011.93
2018-12-23T10:32:20.376Z,1011.94
2018-12-23T10:33:20.388Z,1011.91
2018-12-23T10:34:20.358Z,1011.86
2018-12-23T10:35:20.350Z,1011.90
2018-12-23T10:36:20.332Z,1011.83
2018-12-23T10:37:20.337Z,1011.87
2018-12-23T10:38:20.348Z,1011.89
2018-12-23T10:39:20.303Z,1011.76
2018-12-23T10:40:20.296Z,1011.87
2018-12-23T10:41:20.289Z,1011.77
2018-12-23T10:42:20.268Z,1011.81
2018-12-23T10:43:20.265Z,1011.79
2018-12-23T10:44:20.265Z,1011.81
2018-12-23T10:45:20.240Z,1011.83
2018-12-23T10:46:20.233Z,1011.86
2018-12-23T10:47:20.220Z,1011.91
2018-12-23T10:48:20.209Z,1011.86
2018-12-23T10:49:20.216Z,1011.86
2018-12-23T10:50:20.184Z,1011.78
2018-12-23T10:51:20.190Z,1011.74
2018-12-23T10:52:20.176Z,1011.72
2018-12-23T10:53:20.175Z,1011.70
2018-12-23T10:54:20.169Z,1011.78
2018-12-23T10:55:20.137Z,1011.67
2018-12-23T10:56:20.210Z,1011.68
2018-12-23T10:57:20.125Z,1011.60
2018-12-23T10:58:20.101Z,1011.57
2018-12-23T10:59:20.130Z,1011.60
2018-12-23T11:00:20.082Z,1011.57
2018-12-23T11:01:20.085Z,1011.61
2018-12-23T11:02:20.074Z,1011.60
2018-12-23T11:03:20.060Z,1011.55
2018-12-23T11:04:20.047Z,1011.51
2018-12-23T11:05:20.054Z,1011.57
2018-12-23T11:06:20.025Z,1011.54
2018-12-23T11:07:20.023Z,1011.47
2018-12-23T11:08:26.852Z,1011.42
2018-12-23T11:09:20.986Z,1011.49
2018-12-23T11:10:19.995Z,1011.46
2018-12-23T11:11:19.992Z,1011.43
2018-12-23T11:12:19.962Z,1011.50
2018-12-23T11:13:19.950Z,1011.46
2018-12-23T11:14:19.933Z,1011.45
2018-12-23T11:15:19.943Z,1011.39
2018-12-23T11:16:19.924Z,1011.39
2018-12-23T11:17:19.903Z,1011.41
2018-12-23T11:18:19.893Z,1011.36
2018-12-23T11:19:19.892Z,1011.39
2018-12-23T11:20:19.901Z,1011.41
2018-12-23T11:21:19.874Z,1011.31
2018-12-23T11:22:19.865Z,1011.33
2018-12-23T11:23:19.843Z,1011.30
2018-12-23T11:24:19.832Z,1011.29
2018-12-23T11:25:19.824Z,1011.31
2018-12-23T11:26:19.830Z,1011.26
2018-12-23T11:27:19.800Z,1011.31
2018-12-23T11:28:19.791Z,1011.24
2018-12-23T11:29:19.775Z,1011.29
2018-12-23T11:30:19.763Z,1011.20
2018-12-23T11:31:19.781Z,1011.15
2018-12-23T11:32:19.766Z,1011.20
2018-12-23T11:33:19.743Z,1011.22
2018-12-23T11:34:19.731Z,1011.19
2018-12-23T11:35:19.714Z,1011.14
2018-12-23T11:36:19.727Z,1011.17
2018-12-23T11:37:19.700Z,1011.19
2018-12-23T11:38:19.679Z,1011.13
2018-12-23T11:39:19.672Z,1011.12
2018-12-23T11:40:19.660Z,1011.12
2018-12-23T11:41:19.665Z,1011.10
2018-12-23T11:42:19.639Z,1011.13
2018-12-23T11:43:19.629Z,1011.10
2018-12-23T11:44:19.624Z,1011.04
2018-12-23T11:45:19.610Z,1011.02
2018-12-23T11:46:19.619Z,1011.07
2018-12-23T11:47:19.586Z,1011.05
2018-12-23T11:48:19.583Z,1011.02
2018-12-23T11:49:19.573Z,1011.00
2018-12-23T11:50:19.557Z,1011.03
2018-12-23T11:51:19.542Z,1011.03
2018-12-23T11:52:19.547Z,1011.02
2018-12-23T11:53:19.523Z,1010.97
2018-12-23T11:54:19.541Z,1010.94
2018-12-23T11:55:19.498Z,1010.92
2018-12-23T11:56:19.500Z,1010.90
2018-12-23T11:57:19.498Z,1010.95
2018-12-23T11:58:19.476Z,1010.96
2018-12-23T11:59:19.469Z,1010.91
2018-12-23T12:00:19.457Z,1010.91
2018-12-23T12:01:19.481Z,1010.88
2018-12-23T12:02:19.450Z,1010.91
2018-12-23T12:03:19.417Z,1010.89
2018-12-23T12:04:19.404Z,1010.88
2018-12-23T12:05:19.391Z,1010.88